Terminal Aerodrome Forecast
Issued by NWS

Home | Current Version | Previous Version | Text Only | Print | Product List | Glossary On
Versions: 1 2 3 4 5 6 7 8 9 10 11 12 13 14 15 16 17 18 19 20
000
FTAK31 PAFA 252331
TAFATA
TAF
PATA 252331Z 2600/2624 23005KT P6SM SCT025 SCT040 BKN060
      TEMPO 2601/2603 -SHRA SCT015 BKN025 BKN050
     FM260300 27005KT 6SM -SHRA BKN025 OVC035=

USA.gov is the U.S. government's official web portal to all federal, state and local government web resources and services.